sensor_id;sensor_type;location;lat;lon;timestamp;temperature;humidity
19220;DHT22;9744;49.364;7.484;2022-11-12T00:02:05;8.00;99.90
19220;DHT22;9744;49.364;7.484;2022-11-12T00:04:50;8.00;99.90
19220;DHT22;9744;49.364;7.484;2022-11-12T00:07:36;8.00;99.90
19220;DHT22;9744;49.364;7.484;2022-11-12T00:10:24;7.90;99.90
19220;DHT22;9744;49.364;7.484;2022-11-12T00:13:10;7.90;99.90
19220;DHT22;9744;49.364;7.484;2022-11-12T00:15:56;7.90;99.90
19220;DHT22;9744;49.364;7.484;2022-11-12T00:18:41;7.90;99.90
19220;DHT22;9744;49.364;7.484;2022-11-12T00:21:27;7.90;99.90
19220;DHT22;9744;49.364;7.484;2022-11-12T00:24:13;7.90;99.90
19220;DHT22;9744;49.364;7.484;2022-11-12T00:27:00;7.90;99.90
19220;DHT22;9744;49.364;7.484;2022-11-12T00:29:45;7.90;99.90
19220;DHT22;9744;49.364;7.484;2022-11-12T00:32:33;7.90;99.90
19220;DHT22;9744;49.364;7.484;2022-11-12T00:35:19;7.90;99.90
19220;DHT22;9744;49.364;7.484;2022-11-12T00:38:05;7.90;99.90
19220;DHT22;9744;49.364;7.484;2022-11-12T00:40:50;7.90;99.90
19220;DHT22;9744;49.364;7.484;2022-11-12T00:43:37;8.00;99.90
19220;DHT22;9744;49.364;7.484;2022-11-12T00:46:23;8.00;99.90
19220;DHT22;9744;49.364;7.484;2022-11-12T00:49:09;8.00;99.90
19220;DHT22;9744;49.364;7.484;2022-11-12T00:51:54;8.00;99.90
19220;DHT22;9744;49.364;7.484;2022-11-12T00:54:40;7.90;99.90
19220;DHT22;9744;49.364;7.484;2022-11-12T00:57:26;7.90;99.90
19220;DHT22;9744;49.364;7.484;2022-11-12T01:00:15;7.90;99.90
19220;DHT22;9744;49.364;7.484;2022-11-12T01:03:02;7.90;99.90
19220;DHT22;9744;49.364;7.484;2022-11-12T01:05:48;7.90;99.90
19220;DHT22;9744;49.364;7.484;2022-11-12T01:08:35;7.80;99.90
19220;DHT22;9744;49.364;7.484;2022-11-12T01:11:22;7.80;99.90
19220;DHT22;9744;49.364;7.484;2022-11-12T01:14:08;7.80;99.90
19220;DHT22;9744;49.364;7.484;2022-11-12T01:16:55;7.80;99.90
19220;DHT22;9744;49.364;7.484;2022-11-12T01:19:41;7.80;99.90
19220;DHT22;9744;49.364;7.484;2022-11-12T01:22:27;7.80;99.90
19220;DHT22;9744;49.364;7.484;2022-11-12T01:25:13;7.80;99.90
19220;DHT22;9744;49.364;7.484;2022-11-12T01:27:58;7.80;99.90
19220;DHT22;9744;49.364;7.484;2022-11-12T01:30:44;7.70;99.90
19220;DHT22;9744;49.364;7.484;2022-11-12T01:33:31;7.70;99.90
19220;DHT22;9744;49.364;7.484;2022-11-12T01:36:18;7.70;99.90
19220;DHT22;9744;49.364;7.484;2022-11-12T01:39:04;7.70;99.90
19220;DHT22;9744;49.364;7.484;2022-11-12T01:41:51;7.80;99.90
19220;DHT22;9744;49.364;7.484;2022-11-12T01:44:39;7.80;99.90
19220;DHT22;9744;49.364;7.484;2022-11-12T01:47:28;7.80;99.90
19220;DHT22;9744;49.364;7.484;2022-11-12T01:50:24;7.80;99.90
19220;DHT22;9744;49.364;7.484;2022-11-12T01:53:11;7.80;99.90
19220;DHT22;9744;49.364;7.484;2022-11-12T01:55:59;7.80;99.90
19220;DHT22;9744;49.364;7.484;2022-11-12T01:58:46;7.80;99.90
19220;DHT22;9744;49.364;7.484;2022-11-12T02:01:34;7.80;99.90
19220;DHT22;9744;49.364;7.484;2022-11-12T02:04:21;7.80;99.90
19220;DHT22;9744;49.364;7.484;2022-11-12T02:07:08;7.80;99.90
19220;DHT22;9744;49.364;7.484;2022-11-12T02:09:55;7.80;99.90
19220;DHT22;9744;49.364;7.484;2022-11-12T02:12:41;7.80;99.90
19220;DHT22;9744;49.364;7.484;2022-11-12T02:15:45;7.80;99.90
19220;DHT22;9744;49.364;7.484;2022-11-12T02:18:32;7.70;99.90
19220;DHT22;9744;49.364;7.484;2022-11-12T02:21:19;7.60;99.90
19220;DHT22;9744;49.364;7.484;2022-11-12T02:24:35;7.60;99.90
19220;DHT22;9744;49.364;7.484;2022-11-12T02:27:24;7.60;99.90
19220;DHT22;9744;49.364;7.484;2022-11-12T02:30:10;7.60;99.90
19220;DHT22;9744;49.364;7.484;2022-11-12T02:32:56;7.60;99.90
19220;DHT22;9744;49.364;7.484;2022-11-12T02:35:42;7.50;99.90
19220;DHT22;9744;49.364;7.484;2022-11-12T02:38:32;7.50;99.90
19220;DHT22;9744;49.364;7.484;2022-11-12T02:41:18;7.50;99.90
19220;DHT22;9744;49.364;7.484;2022-11-12T02:44:04;7.40;99.90
19220;DHT22;9744;49.364;7.484;2022-11-12T02:46:49;7.50;99.90
19220;DHT22;9744;49.364;7.484;2022-11-12T02:49:35;7.40;99.90
19220;DHT22;9744;49.364;7.484;2022-11-12T02:52:20;7.40;99.90
19220;DHT22;9744;49.364;7.484;2022-11-12T02:55:10;7.40;99.90
19220;DHT22;9744;49.364;7.484;2022-11-12T02:57:57;7.40;99.90
19220;DHT22;9744;49.364;7.484;2022-11-12T03:00:43;7.40;99.90
19220;DHT22;9744;49.364;7.484;2022-11-12T03:03:29;7.40;99.90
19220;DHT22;9744;49.364;7.484;2022-11-12T03:06:14;7.30;99.90
19220;DHT22;9744;49.364;7.484;2022-11-12T03:09:00;7.20;99.90
19220;DHT22;9744;49.364;7.484;2022-11-12T03:11:47;7.20;99.90
19220;DHT22;9744;49.364;7.484;2022-11-12T03:14:33;7.30;99.90
19220;DHT22;9744;49.364;7.484;2022-11-12T03:17:18;7.20;99.90
19220;DHT22;9744;49.364;7.484;2022-11-12T03:20:05;7.10;99.90
19220;DHT22;9744;49.364;7.484;2022-11-12T03:22:55;7.20;99.90
19220;DHT22;9744;49.364;7.484;2022-11-12T03:25:41;7.10;99.90
19220;DHT22;9744;49.364;7.484;2022-11-12T03:28:28;7.10;99.90
19220;DHT22;9744;49.364;7.484;2022-11-12T03:31:14;7.10;99.90
19220;DHT22;9744;49.364;7.484;2022-11-12T03:34:00;7.10;99.90
19220;DHT22;9744;49.364;7.484;2022-11-12T03:36:45;7.10;99.90
19220;DHT22;9744;49.364;7.484;2022-11-12T03:39:31;7.10;99.90
19220;DHT22;9744;49.364;7.484;2022-11-12T03:42:17;7.10;99.90
19220;DHT22;9744;49.364;7.484;2022-11-12T03:45:05;7.00;99.90
19220;DHT22;9744;49.364;7.484;2022-11-12T03:47:52;7.00;99.90
19220;DHT22;9744;49.364;7.484;2022-11-12T03:50:38;7.00;99.90
19220;DHT22;9744;49.364;7.484;2022-11-12T03:53:25;7.00;99.90
19220;DHT22;9744;49.364;7.484;2022-11-12T03:56:10;7.00;99.90
19220;DHT22;9744;49.364;7.484;2022-11-12T03:58:56;7.00;99.90
19220;DHT22;9744;49.364;7.484;2022-11-12T04:01:43;7.00;99.90
19220;DHT22;9744;49.364;7.484;2022-11-12T04:04:29;7.00;99.90
19220;DHT22;9744;49.364;7.484;2022-11-12T04:07:29;7.00;99.90
19220;DHT22;9744;49.364;7.484;2022-11-12T04:10:32;7.00;99.90
19220;DHT22;9744;49.364;7.484;2022-11-12T04:13:18;6.90;99.90
19220;DHT22;9744;49.364;7.484;2022-11-12T04:16:15;7.00;99.90
19220;DHT22;9744;49.364;7.484;2022-11-12T04:19:20;6.90;99.90
19220;DHT22;9744;49.364;7.484;2022-11-12T04:22:23;6.90;99.90
19220;DHT22;9744;49.364;7.484;2022-11-12T04:25:09;6.90;99.90
19220;DHT22;9744;49.364;7.484;2022-11-12T04:28:13;6.80;99.90
19220;DHT22;9744;49.364;7.484;2022-11-12T04:30:59;6.80;99.90
19220;DHT22;9744;49.364;7.484;2022-11-12T04:33:44;6.80;99.90
19220;DHT22;9744;49.364;7.484;2022-11-12T04:36:31;6.80;99.90
19220;DHT22;9744;49.364;7.484;2022-11-12T04:39:16;6.80;99.90
19220;DHT22;9744;49.364;7.484;2022-11-12T04:42:03;6.80;99.90
19220;DHT22;9744;49.364;7.484;2022-11-12T04:45:08;6.70;99.90
19220;DHT22;9744;49.364;7.484;2022-11-12T04:47:54;6.70;99.90
19220;DHT22;9744;49.364;7.484;2022-11-12T04:50:40;6.80;99.90
19220;DHT22;9744;49.364;7.484;2022-11-12T04:53:28;6.60;99.90
19220;DHT22;9744;49.364;7.484;2022-11-12T04:56:14;6.60;99.90
19220;DHT22;9744;49.364;7.484;2022-11-12T04:58:59;6.60;99.90
19220;DHT22;9744;49.364;7.484;2022-11-12T05:01:45;6.60;99.90
19220;DHT22;9744;49.364;7.484;2022-11-12T05:04:31;6.60;99.90
19220;DHT22;9744;49.364;7.484;2022-11-12T05:07:17;6.60;99.90
19220;DHT22;9744;49.364;7.484;2022-11-12T05:10:05;6.50;99.90
19220;DHT22;9744;49.364;7.484;2022-11-12T05:12:50;6.50;99.90
19220;DHT22;9744;49.364;7.484;2022-11-12T05:15:36;6.50;99.90
19220;DHT22;9744;49.364;7.484;2022-11-12T05:18:22;6.50;99.90
19220;DHT22;9744;49.364;7.484;2022-11-12T05:21:07;6.50;99.90
19220;DHT22;9744;49.364;7.484;2022-11-12T05:24:07;6.50;99.90
19220;DHT22;9744;49.364;7.484;2022-11-12T05:26:54;6.40;99.90
19220;DHT22;9744;49.364;7.484;2022-11-12T05:29:40;6.50;99.90
19220;DHT22;9744;49.364;7.484;2022-11-12T05:32:26;6.40;99.90
19220;DHT22;9744;49.364;7.484;2022-11-12T05:35:12;6.40;99.90
19220;DHT22;9744;49.364;7.484;2022-11-12T05:37:58;6.40;99.90
19220;DHT22;9744;49.364;7.484;2022-11-12T05:40:44;6.40;99.90
19220;DHT22;9744;49.364;7.484;2022-11-12T05:43:31;6.40;99.90
19220;DHT22;9744;49.364;7.484;2022-11-12T05:46:17;6.40;99.90
19220;DHT22;9744;49.364;7.484;2022-11-12T05:49:02;6.40;99.90
19220;DHT22;9744;49.364;7.484;2022-11-12T05:51:48;6.40;99.90
19220;DHT22;9744;49.364;7.484;2022-11-12T05:54:34;6.30;99.90
19220;DHT22;9744;49.364;7.484;2022-11-12T05:57:20;6.30;99.90
19220;DHT22;9744;49.364;7.484;2022-11-12T06:00:09;6.30;99.90
19220;DHT22;9744;49.364;7.484;2022-11-12T06:02:56;6.30;99.90
19220;DHT22;9744;49.364;7.484;2022-11-12T06:05:42;6.30;99.90
19220;DHT22;9744;49.364;7.484;2022-11-12T06:08:28;6.30;99.90
19220;DHT22;9744;49.364;7.484;2022-11-12T06:11:14;6.30;99.90
19220;DHT22;9744;49.364;7.484;2022-11-12T06:14:00;6.20;99.90
19220;DHT22;9744;49.364;7.484;2022-11-12T06:16:47;6.30;99.90
19220;DHT22;9744;49.364;7.484;2022-11-12T06:19:32;6.30;99.90
19220;DHT22;9744;49.364;7.484;2022-11-12T06:22:18;6.20;99.90
19220;DHT22;9744;49.364;7.484;2022-11-12T06:25:04;6.20;99.90
19220;DHT22;9744;49.364;7.484;2022-11-12T06:27:50;6.20;99.90
19220;DHT22;9744;49.364;7.484;2022-11-12T06:30:36;6.20;99.90
19220;DHT22;9744;49.364;7.484;2022-11-12T06:33:23;6.10;99.90
19220;DHT22;9744;49.364;7.484;2022-11-12T06:36:10;6.10;99.90
19220;DHT22;9744;49.364;7.484;2022-11-12T06:38:56;6.10;99.90
19220;DHT22;9744;49.364;7.484;2022-11-12T06:41:41;6.10;99.90
19220;DHT22;9744;49.364;7.484;2022-11-12T06:44:27;6.00;99.90
19220;DHT22;9744;49.364;7.484;2022-11-12T06:47:14;6.10;99.90
19220;DHT22;9744;49.364;7.484;2022-11-12T06:50:01;6.00;99.90
19220;DHT22;9744;49.364;7.484;2022-11-12T06:52:47;6.00;99.90
19220;DHT22;9744;49.364;7.484;2022-11-12T06:55:33;6.10;99.90
19220;DHT22;9744;49.364;7.484;2022-11-12T06:58:18;6.00;99.90
19220;DHT22;9744;49.364;7.484;2022-11-12T07:01:07;6.10;99.90
19220;DHT22;9744;49.364;7.484;2022-11-12T07:03:53;6.00;99.90
19220;DHT22;9744;49.364;7.484;2022-11-12T07:06:40;6.00;99.90
19220;DHT22;9744;49.364;7.484;2022-11-12T07:09:26;6.10;99.90
19220;DHT22;9744;49.364;7.484;2022-11-12T07:12:12;6.10;99.90
19220;DHT22;9744;49.364;7.484;2022-11-12T07:14:58;6.00;99.90
19220;DHT22;9744;49.364;7.484;2022-11-12T07:17:44;6.00;99.90
19220;DHT22;9744;49.364;7.484;2022-11-12T07:20:30;6.10;99.90
19220;DHT22;9744;49.364;7.484;2022-11-12T07:23:18;6.00;99.90
19220;DHT22;9744;49.364;7.484;2022-11-12T07:26:05;6.00;99.90
19220;DHT22;9744;49.364;7.484;2022-11-12T07:28:51;6.10;99.90
19220;DHT22;9744;49.364;7.484;2022-11-12T07:31:39;6.10;99.90
19220;DHT22;9744;49.364;7.484;2022-11-12T07:34:25;6.10;99.90
19220;DHT22;9744;49.364;7.484;2022-11-12T07:37:10;6.10;99.90
19220;DHT22;9744;49.364;7.484;2022-11-12T07:39:57;6.20;99.90
19220;DHT22;9744;49.364;7.484;2022-11-12T07:42:43;6.20;99.90
19220;DHT22;9744;49.364;7.484;2022-11-12T07:45:29;6.30;99.90
19220;DHT22;9744;49.364;7.484;2022-11-12T07:48:15;6.30;99.90
19220;DHT22;9744;49.364;7.484;2022-11-12T07:51:01;6.30;99.90
19220;DHT22;9744;49.364;7.484;2022-11-12T07:53:49;6.30;99.90
19220;DHT22;9744;49.364;7.484;2022-11-12T07:56:36;6.30;99.90
19220;DHT22;9744;49.364;7.484;2022-11-12T07:59:22;6.30;99.90
19220;DHT22;9744;49.364;7.484;2022-11-12T08:02:07;6.30;99.90
19220;DHT22;9744;49.364;7.484;2022-11-12T08:04:55;6.40;99.90
19220;DHT22;9744;49.364;7.484;2022-11-12T08:07:40;6.40;99.90
19220;DHT22;9744;49.364;7.484;2022-11-12T08:10:26;6.40;99.90
19220;DHT22;9744;49.364;7.484;2022-11-12T08:13:14;6.40;99.90
19220;DHT22;9744;49.364;7.484;2022-11-12T08:15:59;6.40;99.90
19220;DHT22;9744;49.364;7.484;2022-11-12T08:18:46;6.50;99.90
19220;DHT22;9744;49.364;7.484;2022-11-12T08:21:31;6.50;99.90
19220;DHT22;9744;49.364;7.484;2022-11-12T08:24:18;6.50;99.90
19220;DHT22;9744;49.364;7.484;2022-11-12T08:27:04;6.50;99.90
19220;DHT22;9744;49.364;7.484;2022-11-12T08:29:51;6.60;99.90
19220;DHT22;9744;49.364;7.484;2022-11-12T08:32:36;6.60;99.90
19220;DHT22;9744;49.364;7.484;2022-11-12T08:35:23;6.60;99.90
19220;DHT22;9744;49.364;7.484;2022-11-12T08:38:09;6.60;99.90
19220;DHT22;9744;49.364;7.484;2022-11-12T08:40:59;6.70;99.90
19220;DHT22;9744;49.364;7.484;2022-11-12T08:43:45;6.70;99.90
19220;DHT22;9744;49.364;7.484;2022-11-12T08:46:32;6.70;99.90
19220;DHT22;9744;49.364;7.484;2022-11-12T08:49:17;6.70;99.90
19220;DHT22;9744;49.364;7.484;2022-11-12T08:52:03;6.80;99.90
19220;DHT22;9744;49.364;7.484;2022-11-12T08:54:49;6.80;99.90
19220;DHT22;9744;49.364;7.484;2022-11-12T08:57:39;6.80;99.90
19220;DHT22;9744;49.364;7.484;2022-11-12T09:00:25;6.90;99.90
19220;DHT22;9744;49.364;7.484;2022-11-12T09:03:14;6.90;99.90
19220;DHT22;9744;49.364;7.484;2022-11-12T09:06:02;6.90;99.90
19220;DHT22;9744;49.364;7.484;2022-11-12T09:08:48;6.90;99.90
19220;DHT22;9744;49.364;7.484;2022-11-12T09:11:34;7.00;99.90
19220;DHT22;9744;49.364;7.484;2022-11-12T09:14:20;6.90;99.90
19220;DHT22;9744;49.364;7.484;2022-11-12T09:17:06;7.00;99.90
19220;DHT22;9744;49.364;7.484;2022-11-12T09:19:53;7.00;99.90
19220;DHT22;9744;49.364;7.484;2022-11-12T09:22:38;7.10;99.90
19220;DHT22;9744;49.364;7.484;2022-11-12T09:25:24;7.00;99.90
19220;DHT22;9744;49.364;7.484;2022-11-12T09:28:11;7.10;99.90
19220;DHT22;9744;49.364;7.484;2022-11-12T09:30:57;7.10;99.90
19220;DHT22;9744;49.364;7.484;2022-11-12T09:33:44;7.20;99.90
19220;DHT22;9744;49.364;7.484;2022-11-12T09:36:31;7.20;99.90
19220;DHT22;9744;49.364;7.484;2022-11-12T09:39:17;7.30;99.90
19220;DHT22;9744;49.364;7.484;2022-11-12T09:42:05;7.30;99.90
19220;DHT22;9744;49.364;7.484;2022-11-12T09:44:55;7.30;99.90
19220;DHT22;9744;49.364;7.484;2022-11-12T09:47:43;7.30;99.90
19220;DHT22;9744;49.364;7.484;2022-11-12T09:50:35;7.40;99.90
19220;DHT22;9744;49.364;7.484;2022-11-12T09:53:29;7.40;99.90
19220;DHT22;9744;49.364;7.484;2022-11-12T09:56:18;7.50;99.90
19220;DHT22;9744;49.364;7.484;2022-11-12T09:59:09;7.60;99.90
19220;DHT22;9744;49.364;7.484;2022-11-12T10:02:03;7.60;99.90
19220;DHT22;9744;49.364;7.484;2022-11-12T10:05:11;7.60;99.90
19220;DHT22;9744;49.364;7.484;2022-11-12T10:08:26;7.70;99.90
19220;DHT22;9744;49.364;7.484;2022-11-12T10:11:27;7.70;99.90
19220;DHT22;9744;49.364;7.484;2022-11-12T10:18:07;7.80;99.90
19220;DHT22;9744;49.364;7.484;2022-11-12T10:20:58;7.90;99.90
19220;DHT22;9744;49.364;7.484;2022-11-12T10:23:48;8.00;99.90
19220;DHT22;9744;49.364;7.484;2022-11-12T10:26:37;8.00;99.90
19220;DHT22;9744;49.364;7.484;2022-11-12T10:29:29;8.10;99.90
19220;DHT22;9744;49.364;7.484;2022-11-12T10:32:17;8.00;99.90
19220;DHT22;9744;49.364;7.484;2022-11-12T10:35:03;8.10;99.90
19220;DHT22;9744;49.364;7.484;2022-11-12T10:37:52;8.10;99.90
19220;DHT22;9744;49.364;7.484;2022-11-12T10:40:41;8.20;99.90
19220;DHT22;9744;49.364;7.484;2022-11-12T10:43:26;8.20;99.90
19220;DHT22;9744;49.364;7.484;2022-11-12T10:46:17;8.20;99.90
19220;DHT22;9744;49.364;7.484;2022-11-12T10:49:06;8.30;99.90
19220;DHT22;9744;49.364;7.484;2022-11-12T10:51:55;8.30;99.90
19220;DHT22;9744;49.364;7.484;2022-11-12T10:54:41;8.30;99.90
19220;DHT22;9744;49.364;7.484;2022-11-12T10:57:28;8.40;99.90
19220;DHT22;9744;49.364;7.484;2022-11-12T11:00:17;8.40;99.90
19220;DHT22;9744;49.364;7.484;2022-11-12T11:03:06;8.40;99.90
19220;DHT22;9744;49.364;7.484;2022-11-12T11:06:01;8.50;99.90
19220;DHT22;9744;49.364;7.484;2022-11-12T11:08:49;8.50;99.90
19220;DHT22;9744;49.364;7.484;2022-11-12T11:11:35;8.60;99.90
19220;DHT22;9744;49.364;7.484;2022-11-12T11:14:28;8.60;99.90
19220;DHT22;9744;49.364;7.484;2022-11-12T11:17:16;8.70;99.90
19220;DHT22;9744;49.364;7.484;2022-11-12T11:20:04;8.70;99.90
19220;DHT22;9744;49.364;7.484;2022-11-12T11:22:53;8.80;99.90
19220;DHT22;9744;49.364;7.484;2022-11-12T11:25:42;8.80;99.90
19220;DHT22;9744;49.364;7.484;2022-11-12T11:28:34;8.90;99.90
19220;DHT22;9744;49.364;7.484;2022-11-12T11:31:31;8.90;99.90
19220;DHT22;9744;49.364;7.484;2022-11-12T11:34:30;8.90;99.90
19220;DHT22;9744;49.364;7.484;2022-11-12T11:37:24;9.00;99.90
19220;DHT22;9744;49.364;7.484;2022-11-12T11:40:17;9.10;99.90
19220;DHT22;9744;49.364;7.484;2022-11-12T11:43:20;9.10;99.90
19220;DHT22;9744;49.364;7.484;2022-11-12T11:46:15;9.20;99.90
19220;DHT22;9744;49.364;7.484;2022-11-12T11:49:19;9.20;99.90
19220;DHT22;9744;49.364;7.484;2022-11-12T11:52:19;9.20;99.90
19220;DHT22;9744;49.364;7.484;2022-11-12T11:55:19;9.30;99.90
19220;DHT22;9744;49.364;7.484;2022-11-12T11:58:21;9.30;99.90
19220;DHT22;9744;49.364;7.484;2022-11-12T12:01:16;9.40;99.90
19220;DHT22;9744;49.364;7.484;2022-11-12T12:04:37;9.40;99.90
19220;DHT22;9744;49.364;7.484;2022-11-12T12:07:33;9.40;99.90
19220;DHT22;9744;49.364;7.484;2022-11-12T12:10:23;9.50;99.90
19220;DHT22;9744;49.364;7.484;2022-11-12T12:13:17;9.50;99.90
19220;DHT22;9744;49.364;7.484;2022-11-12T12:16:24;9.50;99.90
19220;DHT22;9744;49.364;7.484;2022-11-12T12:19:23;9.50;99.90
19220;DHT22;9744;49.364;7.484;2022-11-12T12:22:15;9.60;99.90
19220;DHT22;9744;49.364;7.484;2022-11-12T12:25:10;9.60;99.90
19220;DHT22;9744;49.364;7.484;2022-11-12T12:28:01;9.60;99.90
19220;DHT22;9744;49.364;7.484;2022-11-12T12:30:51;9.70;99.90
19220;DHT22;9744;49.364;7.484;2022-11-12T12:33:43;9.70;99.90
19220;DHT22;9744;49.364;7.484;2022-11-12T12:36:35;9.70;99.90
19220;DHT22;9744;49.364;7.484;2022-11-12T12:39:33;9.70;99.90
19220;DHT22;9744;49.364;7.484;2022-11-12T12:42:24;9.70;99.90
19220;DHT22;9744;49.364;7.484;2022-11-12T12:45:25;9.80;99.90
19220;DHT22;9744;49.364;7.484;2022-11-12T12:48:14;9.80;99.90
19220;DHT22;9744;49.364;7.484;2022-11-12T12:51:02;9.80;99.90
19220;DHT22;9744;49.364;7.484;2022-11-12T12:53:48;9.70;99.90
19220;DHT22;9744;49.364;7.484;2022-11-12T12:56:46;9.80;99.90
19220;DHT22;9744;49.364;7.484;2022-11-12T12:59:32;9.80;99.90
19220;DHT22;9744;49.364;7.484;2022-11-12T13:02:20;9.80;99.90
19220;DHT22;9744;49.364;7.484;2022-11-12T13:05:22;9.80;99.90
19220;DHT22;9744;49.364;7.484;2022-11-12T13:08:10;9.80;99.90
19220;DHT22;9744;49.364;7.484;2022-11-12T13:10:57;9.80;99.90
19220;DHT22;9744;49.364;7.484;2022-11-12T13:13:44;9.80;99.90
19220;DHT22;9744;49.364;7.484;2022-11-12T13:16:54;9.80;99.90
19220;DHT22;9744;49.364;7.484;2022-11-12T13:19:44;9.80;99.90
19220;DHT22;9744;49.364;7.484;2022-11-12T13:22:48;9.80;99.90
19220;DHT22;9744;49.364;7.484;2022-11-12T13:25:35;9.80;99.90
19220;DHT22;9744;49.364;7.484;2022-11-12T13:28:21;9.80;99.90
19220;DHT22;9744;49.364;7.484;2022-11-12T13:34:11;9.80;99.90
19220;DHT22;9744;49.364;7.484;2022-11-12T13:37:01;9.80;99.90
19220;DHT22;9744;49.364;7.484;2022-11-12T13:39:47;9.80;99.90
19220;DHT22;9744;49.364;7.484;2022-11-12T13:42:34;9.80;99.90
19220;DHT22;9744;49.364;7.484;2022-11-12T13:45:40;9.80;99.90
19220;DHT22;9744;49.364;7.484;2022-11-12T13:48:28;9.80;99.90
19220;DHT22;9744;49.364;7.484;2022-11-12T13:51:27;9.80;99.90
19220;DHT22;9744;49.364;7.484;2022-11-12T13:54:29;9.80;99.90
19220;DHT22;9744;49.364;7.484;2022-11-12T13:57:27;9.80;99.90
19220;DHT22;9744;49.364;7.484;2022-11-12T14:00:25;9.80;99.90
19220;DHT22;9744;49.364;7.484;2022-11-12T14:03:16;9.90;99.90
19220;DHT22;9744;49.364;7.484;2022-11-12T14:06:05;9.80;99.90
19220;DHT22;9744;49.364;7.484;2022-11-12T14:12:36;9.80;99.90
19220;DHT22;9744;49.364;7.484;2022-11-12T14:15:32;9.70;99.90
19220;DHT22;9744;49.364;7.484;2022-11-12T14:18:29;9.80;99.90
19220;DHT22;9744;49.364;7.484;2022-11-12T14:21:18;9.80;99.90
19220;DHT22;9744;49.364;7.484;2022-11-12T14:24:09;9.80;99.90
19220;DHT22;9744;49.364;7.484;2022-11-12T14:26:56;9.80;99.90
19220;DHT22;9744;49.364;7.484;2022-11-12T14:29:42;9.80;99.90
19220;DHT22;9744;49.364;7.484;2022-11-12T14:32:34;9.80;99.90
19220;DHT22;9744;49.364;7.484;2022-11-12T14:35:32;9.70;99.90
19220;DHT22;9744;49.364;7.484;2022-11-12T14:38:20;9.70;99.90
19220;DHT22;9744;49.364;7.484;2022-11-12T14:41:09;9.70;99.90
19220;DHT22;9744;49.364;7.484;2022-11-12T14:43:58;9.80;99.90
19220;DHT22;9744;49.364;7.484;2022-11-12T14:46:46;9.80;99.90
19220;DHT22;9744;49.364;7.484;2022-11-12T14:49:36;9.70;99.90
19220;DHT22;9744;49.364;7.484;2022-11-12T14:52:27;9.70;99.90
19220;DHT22;9744;49.364;7.484;2022-11-12T14:55:19;9.70;99.90
19220;DHT22;9744;49.364;7.484;2022-11-12T14:58:10;9.70;99.90
19220;DHT22;9744;49.364;7.484;2022-11-12T15:01:17;9.70;99.90
19220;DHT22;9744;49.364;7.484;2022-11-12T15:04:04;9.70;99.90
19220;DHT22;9744;49.364;7.484;2022-11-12T15:07:00;9.70;99.90
19220;DHT22;9744;49.364;7.484;2022-11-12T15:09:46;9.70;99.90
19220;DHT22;9744;49.364;7.484;2022-11-12T15:12:32;9.70;99.90
19220;DHT22;9744;49.364;7.484;2022-11-12T15:15:22;9.60;99.90
19220;DHT22;9744;49.364;7.484;2022-11-12T15:18:14;9.60;99.90
19220;DHT22;9744;49.364;7.484;2022-11-12T15:21:11;9.60;99.90
19220;DHT22;9744;49.364;7.484;2022-11-12T15:24:06;9.60;99.90
19220;DHT22;9744;49.364;7.484;2022-11-12T15:26:53;9.50;99.90
19220;DHT22;9744;49.364;7.484;2022-11-12T15:29:40;9.50;99.90
19220;DHT22;9744;49.364;7.484;2022-11-12T15:32:32;9.50;99.90
19220;DHT22;9744;49.364;7.484;2022-11-12T15:35:34;9.50;99.90
19220;DHT22;9744;49.364;7.484;2022-11-12T15:38:25;9.50;99.90
19220;DHT22;9744;49.364;7.484;2022-11-12T15:41:21;9.40;99.90
19220;DHT22;9744;49.364;7.484;2022-11-12T15:44:08;9.40;99.90
19220;DHT22;9744;49.364;7.484;2022-11-12T15:46:54;9.40;99.90
19220;DHT22;9744;49.364;7.484;2022-11-12T15:49:53;9.30;99.90
19220;DHT22;9744;49.364;7.484;2022-11-12T15:52:40;9.30;99.90
19220;DHT22;9744;49.364;7.484;2022-11-12T15:55:26;9.30;99.90
19220;DHT22;9744;49.364;7.484;2022-11-12T15:58:15;9.20;99.90
19220;DHT22;9744;49.364;7.484;2022-11-12T16:01:02;9.10;99.90
19220;DHT22;9744;49.364;7.484;2022-11-12T16:03:49;9.10;99.90
19220;DHT22;9744;49.364;7.484;2022-11-12T16:06:36;9.10;99.90
19220;DHT22;9744;49.364;7.484;2022-11-12T16:09:21;9.00;99.90
19220;DHT22;9744;49.364;7.484;2022-11-12T16:12:09;9.00;99.90
19220;DHT22;9744;49.364;7.484;2022-11-12T16:14:55;9.00;99.90
19220;DHT22;9744;49.364;7.484;2022-11-12T16:17:42;8.90;99.90
19220;DHT22;9744;49.364;7.484;2022-11-12T16:20:30;8.90;99.90
19220;DHT22;9744;49.364;7.484;2022-11-12T16:23:17;8.90;99.90
19220;DHT22;9744;49.364;7.484;2022-11-12T16:26:04;8.80;99.90
19220;DHT22;9744;49.364;7.484;2022-11-12T16:28:51;8.90;99.90
19220;DHT22;9744;49.364;7.484;2022-11-12T16:31:40;8.90;99.90
19220;DHT22;9744;49.364;7.484;2022-11-12T16:34:27;8.90;99.90
19220;DHT22;9744;49.364;7.484;2022-11-12T16:37:13;8.80;99.90
19220;DHT22;9744;49.364;7.484;2022-11-12T16:40:00;8.80;99.90
19220;DHT22;9744;49.364;7.484;2022-11-12T16:42:46;8.90;99.90
19220;DHT22;9744;49.364;7.484;2022-11-12T16:45:38;8.90;99.90
19220;DHT22;9744;49.364;7.484;2022-11-12T16:48:24;8.90;99.90
19220;DHT22;9744;49.364;7.484;2022-11-12T16:51:14;8.90;99.90
19220;DHT22;9744;49.364;7.484;2022-11-12T16:54:01;8.90;99.90
19220;DHT22;9744;49.364;7.484;2022-11-12T16:56:48;8.90;99.90
19220;DHT22;9744;49.364;7.484;2022-11-12T16:59:34;8.90;99.90
19220;DHT22;9744;49.364;7.484;2022-11-12T17:02:20;8.90;99.90
19220;DHT22;9744;49.364;7.484;2022-11-12T17:05:11;8.90;99.90
19220;DHT22;9744;49.364;7.484;2022-11-12T17:07:58;8.90;99.90
19220;DHT22;9744;49.364;7.484;2022-11-12T17:10:44;8.90;99.90
19220;DHT22;9744;49.364;7.484;2022-11-12T17:13:31;8.90;99.90
19220;DHT22;9744;49.364;7.484;2022-11-12T17:16:16;8.90;99.90
19220;DHT22;9744;49.364;7.484;2022-11-12T17:19:02;8.90;99.90
19220;DHT22;9744;49.364;7.484;2022-11-12T17:21:49;8.80;99.90
19220;DHT22;9744;49.364;7.484;2022-11-12T17:24:34;8.80;99.90
19220;DHT22;9744;49.364;7.484;2022-11-12T17:27:20;8.80;99.90
19220;DHT22;9744;49.364;7.484;2022-11-12T17:30:08;8.70;99.90
19220;DHT22;9744;49.364;7.484;2022-11-12T17:32:55;8.80;99.90
19220;DHT22;9744;49.364;7.484;2022-11-12T17:35:43;8.80;99.90
19220;DHT22;9744;49.364;7.484;2022-11-12T17:38:29;8.70;99.90
19220;DHT22;9744;49.364;7.484;2022-11-12T17:41:15;8.70;99.90
19220;DHT22;9744;49.364;7.484;2022-11-12T17:44:02;8.70;99.90
19220;DHT22;9744;49.364;7.484;2022-11-12T17:46:50;8.70;99.90
19220;DHT22;9744;49.364;7.484;2022-11-12T17:49:35;8.70;99.90
19220;DHT22;9744;49.364;7.484;2022-11-12T17:52:21;8.70;99.90
19220;DHT22;9744;49.364;7.484;2022-11-12T17:55:07;8.70;99.90
19220;DHT22;9744;49.364;7.484;2022-11-12T17:57:53;8.60;99.90
19220;DHT22;9744;49.364;7.484;2022-11-12T18:00:40;8.60;99.90
19220;DHT22;9744;49.364;7.484;2022-11-12T18:03:27;8.60;99.90
19220;DHT22;9744;49.364;7.484;2022-11-12T18:06:14;8.60;99.90
19220;DHT22;9744;49.364;7.484;2022-11-12T18:09:02;8.60;99.90
19220;DHT22;9744;49.364;7.484;2022-11-12T18:11:50;8.60;99.90
19220;DHT22;9744;49.364;7.484;2022-11-12T18:14:37;8.60;99.90
19220;DHT22;9744;49.364;7.484;2022-11-12T18:17:23;8.60;99.90
19220;DHT22;9744;49.364;7.484;2022-11-12T18:20:15;8.60;99.90
19220;DHT22;9744;49.364;7.484;2022-11-12T18:23:02;8.60;99.90
19220;DHT22;9744;49.364;7.484;2022-11-12T18:25:47;8.60;99.90
19220;DHT22;9744;49.364;7.484;2022-11-12T18:28:33;8.60;99.90
19220;DHT22;9744;49.364;7.484;2022-11-12T18:31:20;8.60;99.90
19220;DHT22;9744;49.364;7.484;2022-11-12T18:34:09;8.60;99.90